aviador You're here:

KORH Decoded Metar

WORCESTER in MA, USA
Report Time2018-05-23 15:54:00
UTC Time2018-05-23 16:29:20
Flight Rules vfr VFR
Wind330° at 07 kt
W.Decomp.*RWY 33: 6.8 kt HW 1.8 kt RCW
RWY 29: 4.0 kt HW 5.7 kt RCW
W.Rank330° ranks 16
Current wind is below 330° avg. (8.6)
Visibility9999 m
Phenomena:N/A
Clouds:N/A
Expected CloudBase > 4,000 ft AGL from Temp-Dew spread
CeilingNone
Temp22°C (ISA +9)
Dew Point12°C (53% RH)
AAT20.1°C
QNH1013 hPa
Density Alt2,234 ft
Elevation997 ft
Report Wrong Elevation
Raw Report
KORH 231554Z 33007KT 10SM CLR 22/12 A2990 RMK AO2 SLP125
T02220117=

Extra information for KORH:More info

Metar Taf Metar & Taf Last 4 Metars F.Rules Stats Wind Profile Meteogram Temp Stats Airport Information Weather charts Add Link Nearby VenuesMetar ALERT Operation Metar Decoded Social comments

AIRNAV info for KORH